• Join FlightAware (Why Join?)
  • Login
  • US Flag 
02:53AM EST


 

Airport Tracker/Info


-or-


 

Live Flight TrackerFlight Track Log ✈ N1253W ✈ 15-Apr-2013 ✈ KPDK - KOSU

Flight Track Log - Related Links

Times and Time Zones

All times are in EDT time to prevent confusion due to time zone crossing. See the N1253W flight status page for this flight to view local times or setup timezone preferences in your user account.

Time Position Orientation Groundspeed Altitude Reporting Facility
EDT Latitude Longitude Course Direction KTS MPH feet Rate Location/Type
08:26AM 33.8500 -84.3167 309° West 170 196 2,300  Level Atlanta TRACON
08:27AM 33.8833 -84.3667 309° West 181 208 3,600 1,560 Climbing Atlanta TRACON
08:28AM 33.9333 -84.3500 15° North 189 217 5,500 1,800 Climbing Atlanta TRACON
08:29AM 33.9833 -84.3500 360° North 186 214 7,200 1,680 Climbing Atlanta TRACON
08:30AM 34.0333 -84.3500 360° North 199 229 8,700 960 Climbing Atlanta TRACON
08:32AM 34.1883 -84.3300 North 253 291 10,400 660 Climbing Atlanta Center
08:33AM 34.2531 -84.3128 12° North 235 270 11,000 780 Climbing Atlanta Center
08:34AM 34.3242 -84.2953 11° North 245 282 12,000 1,380 Climbing Atlanta Center
08:35AM 34.3825 -84.2781 14° North 233 268 13,800 1,800 Climbing Atlanta Center
08:36AM 34.4411 -84.2656 10° North 215 247 15,600 1,680 Climbing Atlanta Center
08:37AM 34.4953 -84.2531 11° North 210 242 17,200 1,440 Climbing Atlanta Center
08:38AM 34.5517 -84.2381 12° North 204 235 18,500 1,200 Climbing Atlanta Center
08:39AM 34.6122 -84.2231 12° North 204 235 19,600 1,140 Climbing Atlanta Center
08:40AM 34.6728 -84.2056 13° North 209 241 20,800 960 Climbing Atlanta Center
08:41AM 34.7250 -84.1981 North 209 241 21,600 900 Climbing Atlanta Center
08:42AM 34.7856 -84.1803 14° North 214 246 22,600 1,140 Climbing Atlanta Center
08:43AM 34.8461 -84.1678 10° North 219 252 23,900 1,140 Climbing Atlanta Center
08:44AM 34.9025 -84.1503 14° North 219 252 24,900 540 Climbing Atlanta Center
08:45AM 34.9650 -84.1350 11° North 224 258 25,000  Climbing Atlanta Center
08:46AM 35.0361 -84.1175 11° North 235 270 25,000  Level Atlanta Center
08:47AM 35.1133 -84.0997 11° North 260 299 25,000  Level Atlanta Center
08:48AM 35.1906 -84.0794 12° North 273 314 25,000  Level Atlanta Center
08:49AM 35.2697 -84.0592 12° North 278 320 25,000  Level Atlanta Center
08:50AM 35.3469 -84.0389 12° North 278 320 25,000  Level Atlanta Center
08:51AM 35.4261 -84.0183 12° North 278 320 25,000  Level Atlanta Center
08:52AM 35.5056 -83.9981 12° North 278 320 25,000  Level Atlanta Center
08:53AM 35.5847 -83.9775 12° North 278 320 25,000  Level Atlanta Center
08:54AM 35.6639 -83.9569 12° North 278 320 25,000  Level Atlanta Center
08:55AM 35.7433 -83.9364 12° North 278 320 25,000  Level Atlanta Center
08:56AM 35.8225 -83.9158 12° North 278 320 25,000  Level Atlanta Center
08:57AM 35.9039 -83.8978 10° North 278 320 25,000  Level Atlanta Center
08:58AM 35.9811 -83.8822 North 278 320 25,000  Level Atlanta Center
09:00AM 36.1725 -83.8450 North 286 329 25,000  Level Indianapolis Center
09:01AM 36.2503 -83.8136 18° North 294 338 25,000  Level Indianapolis Center
09:02AM 36.3275 -83.7819 18° North 294 338 25,000  Level Indianapolis Center
09:03AM 36.4053 -83.7503 18° North 294 338 25,000  Level Indianapolis Center
09:04AM 36.4828 -83.7175 19° North 295 339 25,000  Level Indianapolis Center
09:05AM 36.5697 -83.6822 18° North 298 343 25,000  Level Indianapolis Center
09:06AM 36.6478 -83.6508 18° North 294 338 25,000  Level Indianapolis Center
09:07AM 36.7256 -83.6167 19° North 293 337 25,000  Level Indianapolis Center
09:08AM 36.8033 -83.5853 18° North 293 337 25,000  Level Indianapolis Center
09:10AM 36.8808 -83.5519 19° North 292 336 25,000  Level Indianapolis Center
09:11AM 36.9586 -83.5192 19° North 293 337 25,000  Level Indianapolis Center
09:12AM 37.0486 -83.4817 18° North 291 335 25,000  Level Indianapolis Center
09:13AM 37.1267 -83.4483 19° North 295 339 25,000  Level Indianapolis Center
09:14AM 37.2033 -83.4153 19° North 290 334 25,000  Level Indianapolis Center
09:15AM 37.2803 -83.3822 19° North 290 334 25,000  Level Indianapolis Center
09:16AM 37.3583 -83.3492 19° North 294 338 25,000  Level Indianapolis Center
09:17AM 37.4344 -83.3161 19° North 290 334 25,000  Level Indianapolis Center
09:18AM 37.5114 -83.2831 19° North 292 336 25,000  Level Indianapolis Center
09:19AM 37.6014 -83.2444 19° North 291 335 25,000  Level Indianapolis Center
09:20AM 37.6783 -83.2117 19° North 291 335 25,000  Level Indianapolis Center
09:21AM 37.7544 -83.1781 19° North 290 334 25,000  Level Indianapolis Center
09:22AM 37.8317 -83.1439 19° North 292 336 25,000  Level Indianapolis Center
09:23AM 37.9078 -83.1111 19° North 290 334 25,000  Level Indianapolis Center
09:24AM 37.9850 -83.0789 18° North 290 334 25,000  Level Indianapolis Center
09:25AM 38.0750 -83.0394 19° North 293 337 25,000  Level Indianapolis Center
09:26AM 38.1519 -83.0044 20° North 294 338 25,000  Level Indianapolis Center
09:27AM 38.2300 -82.9722 18° North 295 339 25,000 -420 Level Indianapolis Center
09:28AM 38.3094 -82.9356 20° North 302 348 24,200 -720 Descending Indianapolis Center
09:29AM 38.3928 -82.8994 19° North 313 360 23,600 -1,080 Descending Indianapolis Center
09:30AM 38.4806 -82.8614 19° North 329 379 22,000 -1,620 Descending Indianapolis Center
09:31AM 38.5872 -82.8128 20° North 344 396 20,300 -1,500 Descending Indianapolis Center
09:32AM 38.6606 -82.7803 19° North 338 389 19,000 -1,500 Descending Indianapolis Center
09:33AM 38.7633 -82.7353 19° North 324 373 17,300 -1,560 Descending Indianapolis Center
09:34AM 38.8472 -82.6992 19° North 319 367 15,800 -1,500 Descending Indianapolis Center
09:35AM 38.9306 -82.6619 19° North 317 365 14,300 -1,380 Descending Indianapolis Center
09:36AM 39.0119 -82.6247 20° North 311 358 13,000 -780 Descending Indianapolis Center
09:37AM 39.0892 -82.5894 20° North 297 342 12,800 -660 Descending Indianapolis Center
09:38AM 39.1672 -82.6014 353° North 292 336 11,700 -1,200 Descending Indianapolis Center
09:39AM 39.2508 -82.6419 339° North 297 342 10,400 -1,260 Descending Indianapolis Center
09:40AM 39.2867 -82.6625 336° Northwest 301 346 10,000 -1,080 Descending Indianapolis Center
09:40AM 39.3269 -82.6831 338° Northwest 300 345 9,400 -1,140 Descending Indianapolis Center
09:41AM 39.4039 -82.7239 338° Northwest 272 313 8,200 -720 Descending Indianapolis Center
09:42AM 39.4767 -82.7617 338° Northwest 277 319 8,000 -120 Descending Indianapolis Center
09:43AM 39.5475 -82.7964 339° North 274 315 8,000 -360 Level Indianapolis Center
09:44AM 39.6183 -82.8342 338° Northwest 272 313 7,300 -840 Descending Indianapolis Center
09:45AM 39.6872 -82.8689 339° North 269 310 6,300 -600 Descending Indianapolis Center
09:47AM 39.7642 -82.9083 338° Northwest 264 304 6,000 -720 Descending Indianapolis Center
09:48AM 39.8328 -82.9453 338° Northwest 262 302 4,800 -1,260 Descending Indianapolis Center
09:49AM 39.9014 -82.9803 339° North 261 300 3,600 -840 Descending Indianapolis Center
09:50AM 39.9769 -83.0186 339° North 258 297 3,000 -540 Descending Indianapolis Center
09:51AM 40.0267 -83.0492 335° Northwest 228 262 2,600 -540 Descending Indianapolis Center
09:52AM 40.0478 -83.1061 296° West 168 193 2,100 -660 Descending Indianapolis Center
09:53AM 40.0753 -83.1011 North 111 128 1,300 -480 Descending Indianapolis Center
09:54AM 40.0767 -83.0553 88° East 140 161 1,100 -180 Descending Indianapolis Center